createdAt,value
2022-10-05T00:00:19.724Z,8.08
2022-10-05T00:02:48.172Z,8.02
2022-10-05T00:05:27.154Z,7.95
2022-10-05T00:07:57.453Z,7.95
2022-10-05T00:10:24.480Z,7.91
2022-10-05T00:12:51.462Z,7.89
2022-10-05T00:15:20.966Z,7.94
2022-10-05T00:17:48.050Z,7.96
2022-10-05T00:20:19.349Z,7.92
2022-10-05T00:22:47.095Z,7.86
2022-10-05T00:25:19.343Z,7.84
2022-10-05T00:27:56.973Z,7.79
2022-10-05T00:30:26.488Z,7.76
2022-10-05T00:32:58.699Z,7.80
2022-10-05T00:35:29.285Z,7.86
2022-10-05T00:37:57.075Z,7.87
2022-10-05T00:40:46.165Z,7.64
2022-10-05T00:43:35.141Z,7.61
2022-10-05T00:46:12.154Z,7.75
2022-10-05T00:48:52.369Z,7.93
2022-10-05T00:51:30.585Z,8.13
2022-10-05T00:54:05.920Z,8.18
2022-10-05T00:56:51.057Z,8.15
2022-10-05T00:59:33.800Z,8.17
2022-10-05T01:02:11.482Z,8.07
2022-10-05T01:04:54.733Z,7.99
2022-10-05T01:07:46.747Z,7.91
2022-10-05T01:10:26.830Z,7.94
2022-10-05T01:12:56.426Z,7.94
2022-10-05T01:15:36.552Z,7.88
2022-10-05T01:18:18.499Z,7.85
2022-10-05T01:21:14.036Z,7.81
2022-10-05T01:23:57.021Z,7.75
2022-10-05T01:26:36.306Z,7.68
2022-10-05T01:29:30.978Z,7.65
2022-10-05T01:32:20.437Z,7.66
2022-10-05T01:34:53.350Z,7.68
2022-10-05T01:37:32.506Z,7.72
2022-10-05T01:40:08.440Z,7.75
2022-10-05T01:43:14.329Z,7.73
2022-10-05T01:46:19.725Z,7.72
2022-10-05T01:49:24.634Z,7.64
2022-10-05T01:52:06.569Z,7.60
2022-10-05T01:54:47.298Z,7.55
2022-10-05T01:57:38.948Z,7.48
2022-10-05T02:00:09.364Z,7.52
2022-10-05T02:02:49.236Z,7.45
2022-10-05T02:05:24.782Z,7.40
2022-10-05T02:07:57.262Z,7.37
2022-10-05T02:10:32.838Z,7.30
2022-10-05T02:13:15.949Z,7.40
2022-10-05T02:16:09.261Z,7.37
2022-10-05T02:18:43.907Z,7.40
2022-10-05T02:21:11.220Z,7.39
2022-10-05T02:23:41.005Z,7.42
2022-10-05T02:26:11.748Z,7.40
2022-10-05T02:28:45.826Z,7.38
2022-10-05T02:31:16.194Z,7.36
2022-10-05T02:33:43.548Z,7.38
2022-10-05T02:36:11.198Z,7.31
2022-10-05T02:38:44.286Z,7.31
2022-10-05T02:41:30.327Z,7.26
2022-10-05T02:44:09.532Z,7.27
2022-10-05T02:46:53.095Z,7.22
2022-10-05T02:50:06.913Z,7.20
2022-10-05T02:53:07.745Z,7.24
2022-10-05T02:55:41.040Z,7.22
2022-10-05T02:58:21.225Z,7.31
2022-10-05T03:00:59.186Z,7.25
2022-10-05T03:03:39.945Z,7.25
2022-10-05T03:06:18.930Z,7.34
2022-10-05T03:09:05.681Z,7.39
2022-10-05T03:11:41.218Z,7.42
2022-10-05T03:14:14.690Z,7.41
2022-10-05T03:17:10.950Z,7.43
2022-10-05T03:19:55.865Z,7.51
2022-10-05T03:22:48.526Z,7.56
2022-10-05T03:25:34.882Z,7.51
2022-10-05T03:28:18.472Z,7.46
2022-10-05T03:30:55.878Z,7.35
2022-10-05T03:33:57.241Z,7.20
2022-10-05T03:36:37.378Z,7.05
2022-10-05T03:39:11.213Z,6.90
2022-10-05T03:41:48.543Z,6.78
2022-10-05T03:44:24.321Z,6.68
2022-10-05T03:47:36.905Z,6.55
2022-10-05T03:50:13.222Z,6.54
2022-10-05T03:52:51.401Z,6.50
2022-10-05T03:55:21.746Z,6.51
2022-10-05T03:57:50.360Z,6.37
2022-10-05T04:00:20.163Z,6.32
2022-10-05T04:02:51.052Z,6.24
2022-10-05T04:05:28.782Z,6.19
2022-10-05T04:08:28.702Z,6.14
2022-10-05T04:10:58.352Z,6.22
2022-10-05T04:13:29.287Z,6.14
2022-10-05T04:16:02.833Z,6.07
2022-10-05T04:18:49.237Z,6.06
2022-10-05T04:21:24.091Z,6.08
2022-10-05T04:24:06.400Z,6.07
2022-10-05T04:26:49.904Z,6.06
2022-10-05T04:29:37.782Z,6.05
2022-10-05T04:32:25.072Z,6.06
2022-10-05T04:35:11.391Z,6.07
2022-10-05T04:37:51.297Z,6.13
2022-10-05T04:40:24.497Z,6.01
2022-10-05T04:43:23.701Z,5.99
2022-10-05T04:45:56.676Z,5.99
2022-10-05T04:48:48.824Z,5.94
2022-10-05T04:51:34.595Z,5.98
2022-10-05T04:54:13.112Z,5.98
2022-10-05T04:56:53.571Z,5.92
2022-10-05T04:59:29.755Z,5.87
2022-10-05T05:02:39.556Z,5.90
2022-10-05T05:05:15.854Z,5.93
2022-10-05T05:08:06.939Z,5.85
2022-10-05T05:11:16.169Z,5.80
2022-10-05T05:13:57.910Z,5.79
2022-10-05T05:16:36.250Z,5.78
2022-10-05T05:19:04.165Z,5.86
2022-10-05T05:21:39.941Z,5.94
2022-10-05T05:24:31.472Z,6.09
2022-10-05T05:27:03.746Z,6.22
2022-10-05T05:29:37.385Z,6.31
2022-10-05T05:32:17.747Z,6.43
2022-10-05T05:35:05.167Z,6.55
2022-10-05T05:37:36.284Z,6.69
2022-10-05T05:40:26.668Z,6.81
2022-10-05T05:43:00.762Z,7.00
2022-10-05T05:45:28.055Z,7.11
2022-10-05T05:47:59.342Z,7.26
2022-10-05T05:50:45.224Z,7.45
2022-10-05T05:53:27.472Z,7.61
2022-10-05T05:56:00.674Z,7.78
2022-10-05T05:58:39.703Z,7.90
2022-10-05T06:01:32.133Z,8.08
2022-10-05T06:04:15.297Z,8.34
2022-10-05T06:06:46.800Z,8.60
2022-10-05T06:09:23.542Z,8.81
2022-10-05T06:11:57.362Z,8.92
2022-10-05T06:14:29.041Z,9.15
2022-10-05T06:17:24.133Z,9.33
2022-10-05T06:19:53.924Z,9.49
2022-10-05T06:22:29.315Z,9.59
2022-10-05T06:25:12.031Z,9.59
2022-10-05T06:28:00.330Z,9.55
2022-10-05T06:30:49.728Z,9.56
2022-10-05T06:33:43.950Z,9.65
2022-10-05T06:36:39.747Z,9.92
2022-10-05T06:40:00.052Z,10.15
2022-10-05T06:42:36.159Z,10.34
2022-10-05T06:45:18.797Z,10.43
2022-10-05T06:47:53.961Z,10.40
2022-10-05T06:50:37.110Z,10.64
2022-10-05T06:53:22.802Z,10.80
2022-10-05T06:55:56.901Z,11.02
2022-10-05T06:58:46.370Z,11.21
2022-10-05T07:01:25.809Z,11.37
2022-10-05T07:04:37.135Z,11.51
2022-10-05T07:07:07.349Z,11.71
2022-10-05T07:09:53.489Z,11.95
2022-10-05T07:12:26.408Z,12.07
2022-10-05T07:14:59.884Z,12.22
2022-10-05T07:17:50.103Z,12.30
2022-10-05T07:20:26.280Z,12.48
2022-10-05T07:23:20.030Z,12.51
2022-10-05T07:25:47.627Z,12.49
2022-10-05T07:28:58.204Z,12.60
2022-10-05T07:31:35.248Z,12.62
2022-10-05T07:34:07.113Z,12.80
2022-10-05T07:37:18.477Z,12.87
2022-10-05T07:40:08.073Z,12.99
2022-10-05T07:42:51.707Z,12.99
2022-10-05T07:45:22.454Z,13.12
2022-10-05T07:47:58.686Z,13.18
2022-10-05T07:50:34.925Z,13.39
2022-10-05T07:53:06.707Z,13.32
2022-10-05T07:55:54.737Z,13.36
2022-10-05T07:58:37.244Z,13.37
2022-10-05T08:01:14.031Z,13.44
2022-10-05T08:04:01.276Z,13.37
2022-10-05T08:06:43.389Z,13.46
2022-10-05T08:09:52.489Z,13.28
2022-10-05T08:12:32.004Z,13.35
2022-10-05T08:15:15.444Z,13.39
2022-10-05T08:17:49.594Z,13.56
2022-10-05T08:20:50.783Z,13.62
2022-10-05T08:23:17.883Z,13.79
2022-10-05T08:26:22.765Z,13.85
2022-10-05T08:29:16.624Z,13.97
2022-10-05T08:31:47.045Z,13.95
2022-10-05T08:34:23.872Z,14.02
2022-10-05T08:37:03.177Z,14.08
2022-10-05T08:39:34.289Z,14.02
2022-10-05T08:42:23.544Z,14.17
2022-10-05T08:44:53.161Z,14.38
2022-10-05T08:47:50.556Z,14.47
2022-10-05T08:50:36.350Z,14.59
2022-10-05T08:53:28.429Z,14.48
2022-10-05T08:56:07.228Z,14.32
2022-10-05T08:58:40.349Z,14.06
2022-10-05T09:01:30.230Z,13.89
2022-10-05T09:04:22.678Z,13.72
2022-10-05T09:07:22.210Z,13.92
2022-10-05T09:10:18.792Z,14.24
2022-10-05T09:12:56.919Z,14.38
2022-10-05T09:15:35.102Z,14.68
2022-10-05T09:18:23.711Z,15.06
2022-10-05T09:21:09.868Z,15.14
2022-10-05T09:23:42.938Z,15.34
2022-10-05T09:26:41.744Z,15.21
2022-10-05T09:29:38.916Z,15.38
2022-10-05T09:32:18.469Z,15.62
2022-10-05T09:35:22.305Z,16.02
2022-10-05T09:38:13.384Z,16.32
2022-10-05T09:41:14.882Z,16.15
2022-10-05T09:43:57.469Z,16.63
2022-10-05T09:46:52.483Z,16.70
2022-10-05T09:49:38.249Z,17.16
2022-10-05T09:53:04.939Z,17.32
2022-10-05T09:55:47.157Z,17.19
2022-10-05T09:58:33.339Z,16.77
2022-10-05T10:01:34.259Z,16.44
2022-10-05T10:04:21.080Z,16.30
2022-10-05T10:07:25.677Z,16.09
2022-10-05T10:09:59.853Z,15.86
2022-10-05T10:12:32.780Z,15.73
2022-10-05T10:15:23.986Z,15.78
2022-10-05T10:18:09.266Z,16.02
2022-10-05T10:20:45.618Z,16.32
2022-10-05T10:23:27.487Z,16.49
2022-10-05T10:25:57.790Z,16.64
2022-10-05T10:29:02.157Z,16.55
2022-10-05T10:31:29.449Z,16.49
2022-10-05T10:34:14.546Z,16.59
2022-10-05T10:37:12.370Z,16.70
2022-10-05T10:39:47.652Z,16.96
2022-10-05T10:42:49.115Z,17.00
2022-10-05T10:45:28.660Z,17.07
2022-10-05T10:48:19.197Z,17.25
2022-10-05T10:51:23.276Z,17.60
2022-10-05T10:54:20.284Z,17.81
2022-10-05T10:56:52.976Z,17.75
2022-10-05T10:59:57.976Z,17.81
2022-10-05T11:02:37.233Z,18.21
2022-10-05T11:05:23.395Z,18.25
2022-10-05T11:07:57.089Z,18.20
2022-10-05T11:10:33.033Z,17.89
2022-10-05T11:13:38.230Z,17.81
2022-10-05T11:16:30.566Z,17.81
2022-10-05T11:19:30.912Z,17.96
2022-10-05T11:22:44.295Z,18.13
2022-10-05T11:25:48.735Z,18.38
2022-10-05T11:28:15.915Z,18.51
2022-10-05T11:31:06.699Z,18.44
2022-10-05T11:33:58.313Z,18.39
2022-10-05T11:36:34.377Z,18.33
2022-10-05T11:39:18.833Z,18.48
2022-10-05T11:42:00.777Z,18.53
2022-10-05T11:44:50.558Z,18.62
2022-10-05T11:47:26.676Z,18.42
2022-10-05T11:50:17.125Z,18.42
2022-10-05T11:53:13.043Z,18.62
2022-10-05T11:56:09.467Z,18.85
2022-10-05T11:58:44.072Z,18.99
2022-10-05T12:01:40.249Z,18.89
2022-10-05T12:04:33.227Z,18.90
2022-10-05T12:07:43.414Z,19.22
2022-10-05T12:10:37.405Z,19.47
2022-10-05T12:13:14.275Z,19.74
2022-10-05T12:15:48.393Z,19.96
2022-10-05T12:18:24.977Z,19.91
2022-10-05T12:20:56.721Z,19.91
2022-10-05T12:23:42.215Z,19.80
2022-10-05T12:26:15.038Z,19.61
2022-10-05T12:28:47.945Z,19.58
2022-10-05T12:31:52.144Z,19.61
2022-10-05T12:34:25.021Z,19.47
2022-10-05T12:37:03.912Z,19.51
2022-10-05T12:39:59.153Z,19.53
2022-10-05T12:42:32.353Z,19.47
2022-10-05T12:45:20.161Z,19.35
2022-10-05T12:48:05.149Z,19.29
2022-10-05T12:50:44.366Z,19.25
2022-10-05T12:53:32.953Z,19.50
2022-10-05T12:56:38.473Z,19.52
2022-10-05T12:59:08.599Z,19.29
2022-10-05T13:01:46.824Z,19.18
2022-10-05T13:04:31.201Z,19.47
2022-10-05T13:07:16.586Z,19.45
2022-10-05T13:10:19.331Z,19.55
2022-10-05T13:12:53.031Z,19.61
2022-10-05T13:15:27.933Z,19.61
2022-10-05T13:18:04.101Z,19.74
2022-10-05T13:20:46.933Z,19.88
2022-10-05T13:23:25.351Z,19.74
2022-10-05T13:25:55.347Z,19.49
2022-10-05T13:28:30.865Z,19.58
2022-10-05T13:31:05.037Z,19.53
2022-10-05T13:33:53.842Z,19.37
2022-10-05T13:36:33.218Z,19.19
2022-10-05T13:39:21.559Z,19.17
2022-10-05T13:41:59.657Z,19.28
2022-10-05T13:44:46.799Z,19.33
2022-10-05T13:47:32.895Z,19.48
2022-10-05T13:50:07.518Z,19.43
2022-10-05T13:52:42.228Z,19.33
2022-10-05T13:55:35.282Z,19.27
2022-10-05T13:58:06.552Z,19.15
2022-10-05T14:00:41.625Z,19.33
2022-10-05T14:03:27.913Z,19.05
2022-10-05T14:05:59.987Z,18.94
2022-10-05T14:08:29.765Z,18.77
2022-10-05T14:10:56.906Z,18.73
2022-10-05T14:13:29.191Z,18.78
2022-10-05T14:16:13.202Z,18.73
2022-10-05T14:19:06.116Z,18.76
2022-10-05T14:21:46.127Z,18.78
2022-10-05T14:24:45.194Z,18.70
2022-10-05T14:27:27.576Z,18.63
2022-10-05T14:30:08.281Z,18.49
2022-10-05T14:32:56.227Z,18.49
2022-10-05T14:35:30.235Z,18.43
2022-10-05T14:38:00.719Z,18.41
2022-10-05T14:40:33.276Z,18.06
2022-10-05T14:43:15.941Z,18.00
2022-10-05T14:45:57.528Z,17.55
2022-10-05T14:48:29.811Z,17.40
2022-10-05T14:50:59.543Z,17.04
2022-10-05T14:53:39.553Z,16.84
2022-10-05T14:56:17.284Z,16.83
2022-10-05T14:59:00.848Z,16.58
2022-10-05T15:01:32.693Z,16.59
2022-10-05T15:04:10.148Z,16.54
2022-10-05T15:06:47.226Z,16.44
2022-10-05T15:09:26.395Z,16.27
2022-10-05T15:11:58.685Z,16.32
2022-10-05T15:14:36.929Z,16.26
2022-10-05T15:17:13.905Z,16.03
2022-10-05T15:20:02.207Z,15.92
2022-10-05T15:22:34.288Z,15.86
2022-10-05T15:25:31.298Z,15.74
2022-10-05T15:28:17.932Z,15.81
2022-10-05T15:31:01.838Z,15.54
2022-10-05T15:33:34.458Z,15.35
2022-10-05T15:36:26.426Z,15.36
2022-10-05T15:39:12.305Z,15.32
2022-10-05T15:41:47.615Z,15.25
2022-10-05T15:44:20.661Z,15.40
2022-10-05T15:46:56.466Z,15.39
2022-10-05T15:49:50.860Z,15.06
2022-10-05T15:52:26.114Z,15.02
2022-10-05T15:55:11.391Z,14.83
2022-10-05T15:58:09.557Z,14.67
2022-10-05T16:00:47.736Z,14.72
2022-10-05T16:03:40.369Z,14.61
2022-10-05T16:06:32.742Z,14.62
2022-10-05T16:09:38.544Z,14.57
2022-10-05T16:12:09.717Z,14.51
2022-10-05T16:14:55.961Z,14.49
2022-10-05T16:17:33.921Z,14.39
2022-10-05T16:20:23.113Z,14.30
2022-10-05T16:23:02.578Z,14.24
2022-10-05T16:25:39.995Z,14.24
2022-10-05T16:28:16.324Z,14.28
2022-10-05T16:30:51.671Z,14.19
2022-10-05T16:33:27.033Z,14.12
2022-10-05T16:36:12.326Z,14.06
2022-10-05T16:39:03.729Z,14.08
2022-10-05T16:41:39.264Z,13.99
2022-10-05T16:44:27.779Z,13.95
2022-10-05T16:47:27.425Z,13.95
2022-10-05T16:50:16.087Z,13.92
2022-10-05T16:52:46.026Z,13.83
2022-10-05T16:55:19.152Z,13.71
2022-10-05T16:57:55.563Z,13.73
2022-10-05T17:00:56.296Z,13.64
2022-10-05T17:04:08.814Z,13.53
2022-10-05T17:07:04.890Z,13.52
2022-10-05T17:09:47.279Z,13.43
2022-10-05T17:12:27.560Z,13.44
2022-10-05T17:15:06.372Z,13.30
2022-10-05T17:17:33.293Z,13.34
2022-10-05T17:20:29.370Z,13.28
2022-10-05T17:23:21.407Z,13.24
2022-10-05T17:26:21.381Z,13.23
2022-10-05T17:28:51.347Z,13.23
2022-10-05T17:31:28.006Z,13.20
2022-10-05T17:34:24.868Z,13.31
2022-10-05T17:37:38.023Z,13.21
2022-10-05T17:40:32.513Z,13.21
2022-10-05T17:43:01.353Z,13.17
2022-10-05T17:45:34.249Z,13.11
2022-10-05T17:48:06.116Z,13.10
2022-10-05T17:51:04.207Z,13.17
2022-10-05T17:54:02.372Z,13.09
2022-10-05T17:56:31.337Z,13.00
2022-10-05T17:59:04.239Z,13.04
2022-10-05T18:01:41.462Z,13.02
2022-10-05T18:04:11.557Z,13.03
2022-10-05T18:06:57.137Z,13.01
2022-10-05T18:09:25.960Z,12.92
2022-10-05T18:12:08.842Z,12.83
2022-10-05T18:15:14.074Z,12.82
2022-10-05T18:17:45.504Z,12.71
2022-10-05T18:20:19.124Z,12.69
2022-10-05T18:22:46.793Z,12.68
2022-10-05T18:25:27.181Z,12.65
2022-10-05T18:28:12.667Z,12.60
2022-10-05T18:30:59.167Z,12.54
2022-10-05T18:33:41.365Z,12.47
2022-10-05T18:36:27.430Z,12.48
2022-10-05T18:38:59.821Z,12.38
2022-10-05T18:41:43.044Z,12.36
2022-10-05T18:44:16.084Z,12.41
2022-10-05T18:47:20.863Z,12.39
2022-10-05T18:50:00.586Z,12.37
2022-10-05T18:52:36.283Z,12.37
2022-10-05T18:55:03.392Z,12.35
2022-10-05T18:57:40.023Z,12.28
2022-10-05T19:00:10.001Z,12.23
2022-10-05T19:02:44.924Z,12.23
2022-10-05T19:05:56.613Z,12.20
2022-10-05T19:08:59.137Z,12.11
2022-10-05T19:11:59.292Z,12.06
2022-10-05T19:14:45.283Z,12.06
2022-10-05T19:17:28.579Z,12.04
2022-10-05T19:20:09.332Z,12.07
2022-10-05T19:22:53.994Z,12.00
2022-10-05T19:25:25.984Z,11.95
2022-10-05T19:28:20.601Z,11.96
2022-10-05T19:31:09.785Z,11.88
2022-10-05T19:33:58.395Z,11.81
2022-10-05T19:36:32.515Z,11.75
2022-10-05T19:39:40.603Z,11.76
2022-10-05T19:42:28.721Z,11.73
2022-10-05T19:45:23.138Z,11.79
2022-10-05T19:48:08.751Z,11.81
2022-10-05T19:50:38.441Z,11.84
2022-10-05T19:53:19.767Z,11.89
2022-10-05T19:55:47.162Z,11.76
2022-10-05T19:58:25.968Z,11.72
2022-10-05T20:01:00.970Z,11.68
2022-10-05T20:03:30.303Z,11.67
2022-10-05T20:06:01.957Z,11.57
2022-10-05T20:08:39.409Z,11.62
2022-10-05T20:11:15.240Z,11.65
2022-10-05T20:14:06.720Z,11.78
2022-10-05T20:16:53.902Z,11.58
2022-10-05T20:19:36.237Z,11.59
2022-10-05T20:22:26.368Z,11.57
2022-10-05T20:25:18.105Z,11.52
2022-10-05T20:28:03.316Z,11.59
2022-10-05T20:30:48.994Z,11.49
2022-10-05T20:33:34.512Z,11.47
2022-10-05T20:36:20.366Z,11.44
2022-10-05T20:39:05.720Z,11.38
2022-10-05T20:41:51.740Z,11.28
2022-10-05T20:44:37.886Z,11.22
2022-10-05T20:47:24.285Z,11.24
2022-10-05T20:49:53.410Z,11.32
2022-10-05T20:52:21.428Z,11.18
2022-10-05T20:54:55.824Z,11.09
2022-10-05T20:57:24.237Z,11.03
2022-10-05T20:59:51.517Z,11.06
2022-10-05T21:02:19.549Z,10.97
2022-10-05T21:04:47.761Z,10.94
2022-10-05T21:07:16.303Z,11.01
2022-10-05T21:09:44.672Z,11.11
2022-10-05T21:12:12.542Z,11.11
2022-10-05T21:14:40.568Z,11.11
2022-10-05T21:17:07.755Z,11.07
2022-10-05T21:19:44.255Z,11.26
2022-10-05T21:22:11.941Z,11.31
2022-10-05T21:24:40.793Z,11.28
2022-10-05T21:27:08.344Z,11.14
2022-10-05T21:29:36.452Z,11.01
2022-10-05T21:32:08.574Z,11.01
2022-10-05T21:34:35.798Z,10.85
2022-10-05T21:37:02.803Z,10.86
2022-10-05T21:39:30.357Z,10.80
2022-10-05T21:41:57.370Z,10.80
2022-10-05T21:44:24.329Z,10.83
2022-10-05T21:46:51.910Z,10.80
2022-10-05T21:49:19.856Z,10.68
2022-10-05T21:51:47.568Z,10.78
2022-10-05T21:54:18.597Z,10.74
2022-10-05T21:56:49.456Z,10.66
2022-10-05T21:59:19.233Z,10.60
2022-10-05T22:01:46.330Z,10.51
2022-10-05T22:04:15.022Z,10.45
2022-10-05T22:06:42.118Z,10.38
2022-10-05T22:09:09.460Z,10.27
2022-10-05T22:11:36.775Z,10.20
2022-10-05T22:14:04.124Z,10.15
2022-10-05T22:16:33.731Z,10.05
2022-10-05T22:19:05.929Z,10.01
2022-10-05T22:21:37.850Z,9.95
2022-10-05T22:24:05.539Z,9.89
2022-10-05T22:26:32.881Z,9.86
2022-10-05T22:29:01.713Z,9.82
2022-10-05T22:31:29.132Z,9.78
2022-10-05T22:33:56.161Z,9.74
2022-10-05T22:36:23.218Z,9.74
2022-10-05T22:38:50.554Z,9.76
2022-10-05T22:41:20.527Z,9.80
2022-10-05T22:43:50.105Z,9.81
2022-10-05T22:46:18.342Z,9.88
2022-10-05T22:48:45.507Z,9.95
2022-10-05T22:51:12.657Z,10.10
2022-10-05T22:53:39.949Z,10.26
2022-10-05T23:00:08.300Z,10.34
2022-10-05T23:02:40.170Z,10.33
2022-10-05T23:05:08.261Z,10.42
2022-10-05T23:07:39.928Z,10.49
2022-10-05T23:10:08.209Z,10.45
2022-10-05T23:12:35.478Z,10.34
2022-10-05T23:15:02.640Z,10.46
2022-10-05T23:17:30.390Z,10.42
2022-10-05T23:19:57.941Z,10.41
2022-10-05T23:22:25.382Z,10.34
2022-10-05T23:24:52.493Z,10.28
2022-10-05T23:27:20.109Z,10.25
2022-10-05T23:29:47.150Z,10.33
2022-10-05T23:32:14.199Z,10.29
2022-10-05T23:34:41.496Z,10.23
2022-10-05T23:37:08.563Z,10.21
2022-10-05T23:39:35.528Z,10.17
2022-10-05T23:42:02.833Z,10.11
2022-10-05T23:44:29.872Z,10.07
2022-10-05T23:46:56.869Z,10.06
2022-10-05T23:49:24.145Z,10.02
2022-10-05T23:51:51.124Z,9.95
2022-10-05T23:54:18.126Z,9.89
2022-10-05T23:56:45.422Z,9.86
2022-10-05T23:59:12.399Z,9.84
